Погода Гарианна 2 недели

Бенгази, Ливия

15 - 28 июля
  • 15июля
    Сегодня
    +26°
    +40°
    Ясно и безоблачно
    ВремяПогодаТемператураВлажностьДавлениеВетер, м/сВероятность осадков
    02:00Ясно и безоблачно+30°C29 %702 мм4.0 м/с2 %
    05:00Ясно и безоблачно+29°C35 %702 мм4.0 м/с2 %
    08:00Ясно и безоблачно+32°C23 %703 мм3.1 м/с2 %
    11:00Ясно и безоблачно+38°C15 %704 мм3.4 м/с2 %
    14:00Ясно и безоблачно+40°C11 %703 мм5.4 м/с2 %
    17:00Ясно и безоблачно+39°C13 %702 мм6.5 м/с2 %
    20:00Ясно и безоблачно+35°C19 %703 мм5.6 м/с2 %
    23:00Ясно и безоблачно+30°C29 %703 мм1.9 м/с2 %
  • 16июля
    Вторник
    +25°
    +36°
    Ясно и безоблачно
    ВремяПогодаТемператураВлажностьДавлениеВетер, м/сВероятность осадков
    02:00Ясно и безоблачно+28°C32 %703 мм1.2 м/с2 %
    05:00Ясно и безоблачно+27°C33 %702 мм0.9 м/с2 %
    08:00Ясно и безоблачно+28°C31 %704 мм0.4 м/с2 %
    11:00Ясно и безоблачно+32°C21 %705 мм2.8 м/с2 %
    14:00Ясно и безоблачно+35°C14 %705 мм3.9 м/с2 %
    17:00Ясно и безоблачно+35°C16 %703 мм4.9 м/с2 %
    20:00Ясно и безоблачно+31°C28 %704 мм5.6 м/с2 %
    23:00Ясно и безоблачно+27°C45 %704 мм1.0 м/с2 %
  • 17июля
    Среда
    +24°
    +35°
    Ясно и безоблачно
    ВремяПогодаТемператураВлажностьДавлениеВетер, м/сВероятность осадков
    02:00Ясно и безоблачно+26°C44 %703 мм2.2 м/с2 %
    05:00Ясно и безоблачно+26°C30 %703 мм1.6 м/с2 %
    08:00Ясно и безоблачно+27°C25 %705 мм0.9 м/с2 %
    11:00Ясно и безоблачно+31°C20 %706 мм2.4 м/с2 %
    14:00Ясно и безоблачно+34°C14 %706 мм4.1 м/с2 %
    17:00Ясно и безоблачно+34°C17 %705 мм5.9 м/с2 %
    20:00Ясно и безоблачно+30°C29 %705 мм4.4 м/с2 %
    23:00Ясно и безоблачно+26°C45 %705 мм1.4 м/с2 %
  • 18июля
    Четверг
    +24°
    +35°
    Ясно и безоблачно
    ВремяПогодаТемператураВлажностьДавлениеВетер, м/сВероятность осадков
    02:00Ясно и безоблачно+26°C36 %703 мм1.3 м/с2 %
    05:00Ясно и безоблачно+26°C29 %703 мм0.4 м/с2 %
    08:00Ясно и безоблачно+26°C31 %704 мм1.0 м/с2 %
    11:00Ясно и безоблачно+31°C27 %706 мм2.6 м/с2 %
    14:00Ясно и безоблачно+34°C20 %706 мм4.1 м/с2 %
    17:00Ясно и безоблачно+35°C18 %705 мм5.1 м/с2 %
    20:00Ясно и безоблачно+31°C33 %705 мм5.8 м/с2 %
    23:00Ясно и безоблачно+27°C49 %705 мм2.0 м/с2 %
  • 19июля
    Пятница
    +21°
    +35°
    Ясно и безоблачно
    ВремяПогодаТемператураВлажностьДавлениеВетер, м/сВероятность осадков
    02:00Ясно и безоблачно+26°C41 %704 мм1.8 м/с2 %
    05:00Ясно и безоблачно+26°C36 %704 мм1.6 м/с2 %
    08:00Ясно и безоблачно+27°C31 %705 мм0.8 м/с2 %
    11:00Ясно и безоблачно+31°C25 %705 мм3.0 м/с2 %
    14:00Ясно и безоблачно+34°C21 %705 мм4.2 м/с2 %
    17:00Ясно и безоблачно+34°C22 %704 мм6.4 м/с2 %
    20:00Ясно и безоблачно+30°C21 %703 мм4.5 м/с2 %
    23:00Ясно и безоблачно+26°C42 %703 мм1.0 м/с2 %
Мы используем cookies
Соглашаюсь